Time;durP1;ratioP1;P1;durP2;ratioP2;P2;SDS_P1;SDS_P2;PMS_P1;PMS_P2;Temp;Humidity;BMP_temperature;BMP_pressure;BME280_temperature;BME280_humidity;BME280_pressure;Samples;Min_cycle;Max_cycle;Signal;HPM_P1;HPM_P2
2023/05/25 00:01:25;;;;;;;9.35;6.32;;;11.30;99.90;;;;;;5075999;28;20414;-74
2023/05/25 00:03:51;;;;;;;12.15;6.40;;;11.30;99.90;;;;;;5076042;28;20073;-74
2023/05/25 00:06:18;;;;;;;9.52;7.00;;;11.30;99.90;;;;;;5094452;28;20066;-74
2023/05/25 00:08:45;;;;;;;14.05;8.02;;;11.30;99.90;;;;;;5094124;28;20034;-74
2023/05/25 00:11:11;;;;;;;11.13;7.20;;;11.20;99.90;;;;;;5092892;28;20364;-74
2023/05/25 00:13:38;;;;;;;10.45;6.75;;;11.20;99.90;;;;;;5093724;28;20376;-74
2023/05/25 00:16:04;;;;;;;10.55;7.18;;;11.20;99.90;;;;;;5075870;28;20069;-74
2023/05/25 00:18:32;;;;;;;12.27;7.30;;;11.20;99.90;;;;;;5093697;28;20146;-74
2023/05/25 00:20:58;;;;;;;9.73;6.20;;;11.10;99.90;;;;;;5093892;28;20032;-74
2023/05/25 00:23:23;;;;;;;11.13;6.88;;;11.10;99.90;;;;;;5093909;28;20099;-74
2023/05/25 00:25:49;;;;;;;13.85;7.43;;;11.10;99.90;;;;;;5076393;28;20149;-74
2023/05/25 00:28:15;;;;;;;8.90;7.22;;;11.00;99.90;;;;;;5093821;28;20020;-74
2023/05/25 00:30:40;;;;;;;9.15;7.28;;;11.00;99.90;;;;;;5075763;28;20024;-74
2023/05/25 00:33:07;;;;;;;9.38;7.20;;;11.00;99.90;;;;;;5093841;28;20023;-74
2023/05/25 00:35:33;;;;;;;11.38;7.53;;;11.00;99.90;;;;;;5075665;28;20020;-74
2023/05/25 00:37:58;;;;;;;9.60;7.70;;;11.00;99.90;;;;;;5075725;28;20024;-74
2023/05/25 00:40:24;;;;;;;13.25;7.40;;;11.00;99.90;;;;;;5093428;28;20032;-74
2023/05/25 00:42:50;;;;;;;10.02;7.88;;;11.00;99.90;;;;;;5075663;28;20077;-74
2023/05/25 00:45:16;;;;;;;12.00;8.20;;;11.00;99.90;;;;;;5075597;28;20024;-74
2023/05/25 00:47:43;;;;;;;10.68;7.80;;;11.00;99.90;;;;;;5093387;28;20020;-74
2023/05/25 00:50:13;;;;;;;11.70;7.78;;;11.00;99.90;;;;;;5093646;28;20024;-74
2023/05/25 00:52:38;;;;;;;10.35;7.63;;;10.90;99.90;;;;;;5075550;28;20464;-74
2023/05/25 00:55:07;;;;;;;13.20;8.45;;;9.20;99.90;;;;;;5075674;28;20052;-74
2023/05/25 00:57:36;;;;;;;12.88;7.78;;;10.90;99.90;;;;;;5093337;28;20021;-74
2023/05/25 01:00:07;;;;;;;11.43;6.90;;;10.90;99.90;;;;;;5093319;28;20093;-74
2023/05/25 01:02:33;;;;;;;12.95;8.32;;;10.80;99.90;;;;;;5075563;28;20471;-74
2023/05/25 01:05:01;;;;;;;13.05;8.07;;;10.80;99.90;;;;;;5093548;28;20020;-74
2023/05/25 01:07:29;;;;;;;10.40;7.80;;;10.80;99.90;;;;;;5075529;28;20372;-74
2023/05/25 01:10:03;;;;;;;13.35;8.38;;;10.80;99.90;;;;;;5093728;28;20024;-74
2023/05/25 01:12:35;;;;;;;13.23;7.38;;;10.80;99.90;;;;;;5075065;28;20035;-74
2023/05/25 01:15:02;;;;;;;12.65;7.88;;;10.80;99.90;;;;;;5075166;28;20021;-74
2023/05/25 01:17:28;;;;;;;11.05;7.70;;;10.80;99.90;;;;;;5093237;28;20480;-75
2023/05/25 01:19:57;;;;;;;19.50;9.27;;;10.70;99.90;;;;;;5093584;28;20032;-77
2023/05/25 01:22:31;;;;;;;;;;;10.70;99.90;;;;;;5081732;28;20477;-76
2023/05/25 01:25:12;;;;;;;12.55;7.75;;;10.70;99.90;;;;;;5100988;28;19907;-74
2023/05/25 01:27:56;;;;;;;15.40;7.45;;;10.70;99.90;;;;;;5083128;28;20502;-74
2023/05/25 01:30:25;;;;;;;11.30;7.65;;;10.70;99.90;;;;;;5079059;28;20024;-74
2023/05/25 01:32:52;;;;;;;11.85;7.13;;;10.70;99.90;;;;;;5079001;28;20016;-74
2023/05/25 01:35:20;;;;;;;12.43;8.07;;;10.60;99.90;;;;;;5078933;28;20032;-74
2023/05/25 01:37:46;;;;;;;13.82;7.80;;;10.60;99.90;;;;;;5096845;28;20019;-74
2023/05/25 01:40:15;;;;;;;14.60;9.57;;;10.60;99.90;;;;;;5078540;28;20527;-74
2023/05/25 01:42:41;;;;;;;13.25;8.73;;;10.60;99.90;;;;;;5096985;28;20031;-74
2023/05/25 01:45:08;;;;;;;12.68;8.27;;;10.50;99.90;;;;;;5112788;28;20028;-74
2023/05/25 01:47:45;;;;;;;16.02;8.60;;;10.50;99.90;;;;;;5078428;28;20020;-74
2023/05/25 01:50:22;;;;;;;14.45;8.57;;;10.50;99.90;;;;;;5096990;28;20016;-74
2023/05/25 01:53:01;;;;;;;13.65;8.55;;;10.40;99.90;;;;;;5078990;28;20023;-74
2023/05/25 01:55:30;;;;;;;11.60;7.78;;;10.50;99.90;;;;;;5096882;28;20111;-74
2023/05/25 01:57:58;;;;;;;15.68;8.45;;;10.50;99.90;;;;;;5097040;28;20349;-74
2023/05/25 02:00:30;;;;;;;9.88;6.63;;;10.50;99.90;;;;;;5078173;28;20066;-74
2023/05/25 02:02:56;;;;;;;15.43;8.20;;;10.40;99.90;;;;;;5078052;28;20028;-74
2023/05/25 02:05:22;;;;;;;11.82;8.10;;;10.40;99.90;;;;;;5078298;28;20105;-74
2023/05/25 02:07:48;;;;;;;10.77;8.50;;;10.40;99.90;;;;;;5078860;28;20063;-74
2023/05/25 02:10:13;;;;;;;12.35;8.63;;;10.40;99.90;;;;;;5079576;28;20055;-74
2023/05/25 02:12:39;;;;;;;14.35;9.30;;;10.30;99.90;;;;;;5096980;28;20525;-74
2023/05/25 02:15:05;;;;;;;15.35;9.30;;;10.30;99.90;;;;;;5078752;28;20372;-74
2023/05/25 02:17:31;;;;;;;15.88;9.18;;;10.30;99.90;;;;;;5078764;28;20028;-74
2023/05/25 02:19:56;;;;;;;12.68;9.60;;;10.30;99.90;;;;;;5078411;28;20119;-74
2023/05/25 02:22:22;;;;;;;15.15;9.75;;;10.30;99.90;;;;;;5096329;28;20027;-74
2023/05/25 02:24:48;;;;;;;16.08;9.77;;;10.30;99.90;;;;;;5077953;28;20053;-74
2023/05/25 02:27:14;;;;;;;19.67;10.57;;;10.30;99.90;;;;;;5111966;28;20024;-74
2023/05/25 02:29:40;;;;;;;16.60;10.32;;;10.30;99.90;;;;;;5095968;28;20399;-75
2023/05/25 02:32:06;;;;;;;13.25;9.55;;;10.30;99.90;;;;;;5095876;28;20364;-74
2023/05/25 02:34:32;;;;;;;14.40;10.38;;;10.30;99.90;;;;;;5110581;28;20479;-74
2023/05/25 02:36:57;;;;;;;17.52;9.85;;;10.30;99.90;;;;;;5077872;28;20024;-74
2023/05/25 02:39:26;;;;;;;16.67;9.52;;;10.30;99.90;;;;;;5077622;28;20361;-74
2023/05/25 02:41:52;;;;;;;13.77;9.70;;;10.30;99.90;;;;;;5077837;28;20031;-74
2023/05/25 02:44:18;;;;;;;16.42;10.30;;;10.30;99.90;;;;;;5095804;28;20032;-74
2023/05/25 02:46:43;;;;;;;16.38;9.68;;;10.20;99.90;;;;;;5095347;28;20086;-74
2023/05/25 02:49:09;;;;;;;19.15;11.52;;;10.20;99.90;;;;;;5110859;28;20118;-74
2023/05/25 02:51:35;;;;;;;18.73;10.80;;;10.20;99.90;;;;;;5077297;28;20030;-74
2023/05/25 02:54:01;;;;;;;15.05;10.48;;;10.20;99.90;;;;;;5095638;28;20016;-74
2023/05/25 02:56:27;;;;;;;23.25;10.43;;;10.10;99.90;;;;;;5077171;28;20020;-74
2023/05/25 02:58:53;;;;;;;16.85;11.25;;;10.20;99.90;;;;;;5095283;28;20118;-74
2023/05/25 03:01:18;;;;;;;18.75;11.18;;;10.20;99.90;;;;;;5094909;28;20036;-74
2023/05/25 03:03:46;;;;;;;19.10;11.73;;;10.20;99.90;;;;;;5095474;28;20012;-74
2023/05/25 03:06:13;;;;;;;16.83;10.73;;;10.20;99.90;;;;;;5095121;28;20047;-74
2023/05/25 03:08:39;;;;;;;20.35;10.68;;;10.20;99.90;;;;;;5095228;28;20028;-74
2023/05/25 03:11:05;;;;;;;19.23;10.45;;;10.20;99.90;;;;;;5095042;28;20476;-74
2023/05/25 03:13:31;;;;;;;16.85;11.05;;;10.20;99.90;;;;;;5095036;28;20126;-74
2023/05/25 03:15:56;;;;;;;13.82;10.43;;;10.20;99.90;;;;;;5095417;28;20477;-74
2023/05/25 03:18:22;;;;;;;14.95;10.82;;;10.20;99.90;;;;;;5095216;28;20031;-74
2023/05/25 03:20:47;;;;;;;17.52;9.90;;;10.20;99.90;;;;;;5094985;28;20091;-74
2023/05/25 03:23:13;;;;;;;21.90;10.20;;;10.10;99.90;;;;;;5094864;28;20381;-75
2023/05/25 03:25:39;;;;;;;16.63;10.13;;;10.10;99.90;;;;;;5111146;28;20445;-74
2023/05/25 03:28:04;;;;;;;21.98;10.40;;;10.10;99.90;;;;;;5110496;28;20146;-74
2023/05/25 03:30:30;;;;;;;16.73;10.68;;;10.10;99.90;;;;;;5076603;28;20035;-74
2023/05/25 03:32:56;;;;;;;18.60;10.32;;;10.10;99.90;;;;;;5094475;28;20077;-74
2023/05/25 03:35:22;;;;;;;20.55;11.32;;;10.10;99.90;;;;;;5094605;28;20024;-74
2023/05/25 03:37:47;;;;;;;20.83;11.40;;;10.20;99.90;;;;;;5110325;28;20022;-74
2023/05/25 03:40:13;;;;;;;14.43;10.38;;;10.10;99.90;;;;;;5076342;28;20457;-74
2023/05/25 03:42:39;;;;;;;16.85;11.25;;;10.20;99.90;;;;;;5095349;28;20099;-74
2023/05/25 03:45:07;;;;;;;16.63;10.63;;;10.20;99.90;;;;;;5095048;28;20016;-74
2023/05/25 03:47:33;;;;;;;19.13;10.57;;;10.20;99.90;;;;;;5077368;28;20027;-74
2023/05/25 03:49:59;;;;;;;13.88;10.50;;;10.30;99.90;;;;;;5095134;28;20464;-74
2023/05/25 03:52:25;;;;;;;15.88;11.70;;;10.30;99.90;;;;;;5076398;28;20051;-74
2023/05/25 03:54:51;;;;;;;18.63;11.43;;;10.40;99.90;;;;;;5094522;28;20054;-74
2023/05/25 03:57:16;;;;;;;17.42;10.45;;;10.30;99.90;;;;;;5076360;28;20115;-74
2023/05/25 03:59:42;;;;;;;15.95;10.85;;;10.40;99.90;;;;;;5076040;28;20376;-74
2023/05/25 04:02:07;;;;;;;18.67;11.98;;;10.40;99.90;;;;;;5076040;28;20532;-74
2023/05/25 04:04:33;;;;;;;14.68;10.13;;;10.40;99.90;;;;;;5093817;28;20057;-74
2023/05/25 04:06:59;;;;;;;20.05;11.50;;;10.50;99.90;;;;;;5094103;28;20020;-74
2023/05/25 04:09:24;;;;;;;19.25;10.75;;;10.50;99.90;;;;;;5076159;28;20016;-74
2023/05/25 04:11:50;;;;;;;13.98;10.77;;;10.60;99.90;;;;;;5076032;28;20457;-74
2023/05/25 04:14:15;;;;;;;20.48;11.15;;;10.60;99.90;;;;;;5075988;28;20110;-73
2023/05/25 04:16:41;;;;;;;18.42;11.32;;;10.70;99.90;;;;;;5109737;28;20103;-73
2023/05/25 04:19:07;;;;;;;16.70;11.07;;;10.80;99.90;;;;;;5109577;28;20044;-73
2023/05/25 04:21:32;;;;;;;17.50;12.00;;;10.80;99.90;;;;;;5075750;28;20023;-73
2023/05/25 04:23:58;;;;;;;18.50;11.70;;;10.90;99.90;;;;;;5094506;28;20360;-73
2023/05/25 04:26:26;;;;;;;24.08;12.27;;;10.90;99.90;;;;;;5093733;28;20023;-73
2023/05/25 04:28:55;;;;;;;18.98;12.25;;;11.00;99.90;;;;;;5076210;28;20069;-74
2023/05/25 04:31:21;;;;;;;20.53;11.50;;;11.00;99.90;;;;;;5079009;28;20028;-72
2023/05/25 04:33:46;;;;;;;18.27;11.55;;;11.10;99.90;;;;;;5112863;28;20453;-72
2023/05/25 04:36:13;;;;;;;19.92;12.15;;;11.20;99.90;;;;;;5095214;28;20024;-70
2023/05/25 04:38:40;;;;;;;19.35;12.02;;;11.30;99.90;;;;;;5109639;28;20024;-72
2023/05/25 04:41:07;;;;;;;19.40;12.32;;;11.30;99.90;;;;;;5075614;28;20024;-71
2023/05/25 04:43:33;;;;;;;15.05;11.07;;;11.40;99.90;;;;;;5075574;28;20488;-72
2023/05/25 04:45:58;;;;;;;18.95;12.20;;;11.50;99.90;;;;;;5093655;28;20020;-71
2023/05/25 04:48:27;;;;;;;19.75;13.20;;;11.60;99.90;;;;;;5109146;28;20016;-71
2023/05/25 04:50:54;;;;;;;22.55;12.63;;;11.70;99.90;;;;;;5075452;28;20024;-74
2023/05/25 04:53:21;;;;;;;24.70;12.48;;;11.70;99.90;;;;;;5075484;28;20028;-69
2023/05/25 04:55:48;;;;;;;19.63;11.07;;;11.90;99.90;;;;;;5093990;28;20453;-69
2023/05/25 04:58:14;;;;;;;19.58;11.05;;;12.00;99.90;;;;;;5096790;28;20016;-70
2023/05/25 05:00:39;;;;;;;20.55;10.50;;;12.10;99.90;;;;;;5097605;28;20111;-69
2023/05/25 05:03:05;;;;;;;18.65;10.43;;;12.20;99.90;;;;;;5079297;28;20028;-69
2023/05/25 05:05:31;;;;;;;20.15;10.05;;;12.20;99.90;;;;;;5079192;28;20031;-69
2023/05/25 05:07:57;;;;;;;18.95;10.70;;;12.30;99.90;;;;;;5112680;28;20020;-69
2023/05/25 05:10:22;;;;;;;17.17;10.45;;;12.40;99.90;;;;;;5079265;28;20119;-69
2023/05/25 05:12:48;;;;;;;19.98;10.43;;;12.40;99.90;;;;;;5097203;28;20024;-69
2023/05/25 05:15:14;;;;;;;19.92;10.63;;;12.50;99.90;;;;;;5078891;28;20028;-69
2023/05/25 05:17:40;;;;;;;18.77;9.70;;;12.60;99.90;;;;;;5097217;28;20099;-69
2023/05/25 05:20:06;;;;;;;21.70;10.05;;;12.70;99.90;;;;;;5112842;28;20031;-69
2023/05/25 05:22:32;;;;;;;20.23;9.80;;;12.70;99.90;;;;;;5097398;28;20031;-68
2023/05/25 05:24:58;;;;;;;17.27;10.00;;;12.80;99.90;;;;;;5096768;28;20016;-69
2023/05/25 05:27:25;;;;;;;18.85;9.48;;;12.90;99.90;;;;;;5096991;28;20055;-69
2023/05/25 05:29:50;;;;;;;17.80;8.60;;;12.90;99.90;;;;;;5096958;28;20111;-68
2023/05/25 05:32:16;;;;;;;17.58;8.80;;;13.00;99.90;;;;;;5096781;28;20435;-68
2023/05/25 05:34:41;;;;;;;13.63;8.00;;;13.10;99.90;;;;;;5096725;28;20012;-68
2023/05/25 05:37:07;;;;;;;19.83;9.90;;;13.10;99.90;;;;;;5096850;28;20020;-69
2023/05/25 05:39:33;;;;;;;15.00;9.15;;;13.20;99.90;;;;;;5096685;28;20048;-69
2023/05/25 05:41:58;;;;;;;15.48;8.73;;;13.20;99.90;;;;;;5112239;28;20093;-68
2023/05/25 05:44:24;;;;;;;18.60;8.52;;;13.30;99.90;;;;;;5096535;28;20043;-69
2023/05/25 05:46:50;;;;;;;12.48;7.50;;;13.40;99.90;;;;;;5078412;28;20472;-69
2023/05/25 05:49:16;;;;;;;14.05;7.57;;;13.50;99.90;;;;;;5096771;28;20024;-69
2023/05/25 05:51:41;;;;;;;15.75;7.13;;;13.50;99.90;;;;;;5096478;28;20048;-69
2023/05/25 05:54:07;;;;;;;15.88;7.13;;;13.60;99.90;;;;;;5096207;28;20020;-69
2023/05/25 05:56:33;;;;;;;14.00;6.25;;;13.80;99.90;;;;;;5096021;28;20093;-69
2023/05/25 05:58:58;;;;;;;16.98;8.18;;;13.90;99.90;;;;;;5077942;28;20044;-70
2023/05/25 06:01:24;;;;;;;12.32;6.35;;;14.10;99.90;;;;;;5095909;28;20032;-69
2023/05/25 06:03:53;;;;;;;15.82;6.55;;;14.20;99.90;;;;;;5079029;28;20035;-69
2023/05/25 06:06:18;;;;;;;14.95;6.43;;;14.40;99.90;;;;;;5096217;28;20023;-69
2023/05/25 06:08:45;;;;;;;17.05;5.97;;;14.90;99.90;;;;;;5096411;28;20024;-69
2023/05/25 06:11:10;;;;;;;11.52;5.53;;;15.40;99.90;;;;;;5077914;28;20060;-69
2023/05/25 06:13:36;;;;;;;13.82;5.90;;;15.70;99.90;;;;;;5096258;28;20077;-69
2023/05/25 06:16:01;;;;;;;10.23;4.72;;;15.90;99.90;;;;;;5096262;28;20453;-69
2023/05/25 06:18:27;;;;;;;12.02;5.38;;;16.30;99.90;;;;;;5095827;28;20020;-70
2023/05/25 06:20:53;;;;;;;9.48;5.55;;;16.50;99.90;;;;;;5095846;28;20038;-70
2023/05/25 06:23:18;;;;;;;8.85;5.25;;;16.70;99.90;;;;;;5095570;28;20032;-70
2023/05/25 06:25:45;;;;;;;10.43;5.30;;;16.80;99.90;;;;;;5095896;28;20111;-72
2023/05/25 06:28:11;;;;;;;12.68;4.53;;;17.10;99.90;;;;;;5095831;28;20107;-69
2023/05/25 06:30:37;;;;;;;11.80;4.95;;;17.30;99.90;;;;;;5095763;28;20436;-69
2023/05/25 06:33:02;;;;;;;13.32;5.20;;;17.60;99.90;;;;;;5095342;28;20361;-69
2023/05/25 06:35:28;;;;;;;10.77;4.35;;;17.90;99.90;;;;;;5111360;28;20076;-69
2023/05/25 06:37:54;;;;;;;9.10;4.82;;;18.10;99.90;;;;;;5095658;28;20020;-69
2023/05/25 06:40:20;;;;;;;10.15;4.53;;;18.10;99.90;;;;;;5095502;28;20024;-69
2023/05/25 06:42:46;;;;;;;10.50;4.70;;;18.30;99.90;;;;;;5111225;28;20028;-68
2023/05/25 06:45:12;;;;;;;9.20;4.03;;;18.70;99.90;;;;;;5077289;28;20024;-69
2023/05/25 06:47:37;;;;;;;10.00;4.50;;;18.70;99.90;;;;;;5077284;28;20085;-68
2023/05/25 06:50:04;;;;;;;8.73;4.78;;;18.80;99.90;;;;;;5095305;28;20035;-69
2023/05/25 06:52:30;;;;;;;11.27;4.10;;;18.70;99.90;;;;;;5077205;28;20424;-69
2023/05/25 06:54:56;;;;;;;9.50;4.60;;;18.70;99.90;;;;;;5095583;28;20103;-69
2023/05/25 06:57:22;;;;;;;8.27;4.50;;;18.30;99.70;;;;;;5095554;28;20138;-68
2023/05/25 06:59:48;;;;;;;11.82;4.40;;;18.10;99.90;;;;;;5095011;28;20059;-69
2023/05/25 07:02:14;;;;;;;11.70;4.68;;;18.50;99.90;;;;;;5095064;28;20415;-69
2023/05/25 07:04:40;;;;;;;9.00;4.75;;;18.70;99.90;;;;;;5095193;28;20357;-69
2023/05/25 07:07:06;;;;;;;8.00;4.97;;;18.70;99.90;;;;;;5095063;28;20024;-69
2023/05/25 07:09:33;;;;;;;10.02;5.10;;;18.50;99.60;;;;;;5094992;28;20073;-68
2023/05/25 07:11:59;;;;;;;11.02;4.63;;;18.40;99.90;;;;;;5094938;28;20028;-69
2023/05/25 07:14:25;;;;;;;9.70;4.53;;;18.50;99.90;;;;;;5094887;28;20012;-69
2023/05/25 07:16:51;;;;;;;10.07;4.85;;;18.80;99.90;;;;;;5076660;28;20069;-69
2023/05/25 07:19:16;;;;;;;8.10;4.85;;;19.30;99.10;;;;;;5094063;28;20462;-69
2023/05/25 07:21:42;;;;;;;21.63;5.65;;;19.60;98.20;;;;;;5095276;28;20024;-69
2023/05/25 07:24:08;;;;;;;10.85;4.53;;;19.90;97.40;;;;;;5094995;28;20103;-69
2023/05/25 07:26:35;;;;;;;7.10;4.60;;;20.10;96.60;;;;;;5095122;28;20457;-69
2023/05/25 07:29:01;;;;;;;9.18;4.00;;;20.20;95.40;;;;;;5094649;28;20058;-69
2023/05/25 07:31:26;;;;;;;9.50;4.53;;;20.30;96.10;;;;;;5076516;28;20052;-69
2023/05/25 07:33:54;;;;;;;9.43;4.60;;;20.20;95.00;;;;;;5094616;28;20016;-70
2023/05/25 07:36:19;;;;;;;9.00;4.47;;;20.10;95.30;;;;;;5094476;28;20016;-69
2023/05/25 07:38:46;;;;;;;7.63;4.40;;;19.70;95.10;;;;;;5094651;28;20020;-69
2023/05/25 07:41:12;;;;;;;12.32;4.68;;;19.20;96.50;;;;;;5094317;28;20020;-69
2023/05/25 07:43:38;;;;;;;8.60;4.82;;;18.80;97.70;;;;;;5076274;28;20028;-68
2023/05/25 07:46:04;;;;;;;9.35;4.45;;;18.80;97.40;;;;;;5093986;28;20099;-68
2023/05/25 07:48:30;;;;;;;9.88;4.03;;;18.70;97.20;;;;;;5094301;28;20016;-69
2023/05/25 07:50:55;;;;;;;8.32;4.05;;;18.80;98.20;;;;;;5076042;28;20034;-69
2023/05/25 07:53:21;;;;;;;11.82;4.25;;;19.60;97.30;;;;;;5076008;28;20026;-69
2023/05/25 07:55:47;;;;;;;7.28;4.65;;;20.40;95.80;;;;;;5109927;28;20031;-70
2023/05/25 07:58:13;;;;;;;12.45;4.50;;;20.70;92.80;;;;;;5094411;28;20094;-70
2023/05/25 08:00:38;;;;;;;8.88;4.00;;;20.90;92.60;;;;;;5094329;28;20028;-69
2023/05/25 08:03:04;;;;;;;9.20;4.25;;;20.80;92.00;;;;;;5075900;28;20038;-69
2023/05/25 08:05:30;;;;;;;9.95;4.07;;;21.10;92.30;;;;;;5075904;28;20020;-70
2023/05/25 08:07:56;;;;;;;9.20;4.10;;;21.70;91.30;;;;;;5094005;28;20055;-70
2023/05/25 08:10:22;;;;;;;7.15;3.63;;;21.90;88.30;;;;;;5094019;28;20020;-70
2023/05/25 08:12:48;;;;;;;10.30;6.72;;;22.30;85.70;;;;;;5075892;28;20049;-70
2023/05/25 08:15:14;;;;;;;9.65;4.60;;;22.30;85.70;;;;;;5075638;28;20476;-70
2023/05/25 08:17:40;;;;;;;8.65;4.10;;;21.90;84.20;;;;;;5075726;28;20027;-70
2023/05/25 08:20:09;;;;;;;8.10;4.03;;;21.50;83.70;;;;;;5093813;28;20020;-69
2023/05/25 08:22:34;;;;;;;;;;;21.30;84.20;;;;;;5094302;28;20024;-69
2023/05/25 08:25:04;;;;;;;9.73;4.60;;;21.10;84.40;;;;;;5093778;28;19900;-69
2023/05/25 08:27:29;;;;;;;8.40;4.30;;;21.20;85.60;;;;;;5094228;28;20028;-70
2023/05/25 08:29:55;;;;;;;11.90;7.03;;;21.60;82.60;;;;;;5075680;28;20441;-70
2023/05/25 08:32:20;;;;;;;10.10;4.60;;;22.00;84.30;;;;;;5096259;28;20050;-70
2023/05/25 08:34:46;;;;;;;7.95;4.72;;;22.60;82.00;;;;;;5114487;28;20016;-70
2023/05/25 08:37:12;;;;;;;7.25;3.92;;;22.60;78.80;;;;;;5080248;28;20020;-70
2023/05/25 08:39:37;;;;;;;8.65;4.25;;;22.20;78.30;;;;;;5097993;28;20346;-70
2023/05/25 08:42:05;;;;;;;5.82;3.88;;;22.30;79.80;;;;;;5079772;28;20369;-70
2023/05/25 08:44:31;;;;;;;6.90;4.55;;;22.60;78.60;;;;;;5079653;28;20077;-71
2023/05/25 08:47:02;;;;;;;7.88;4.10;;;22.90;77.40;;;;;;5097730;28;20020;-71
2023/05/25 08:49:28;;;;;;;8.13;4.13;;;22.70;77.20;;;;;;5079574;28;20411;-70
2023/05/25 08:51:54;;;;;;;10.38;4.10;;;22.70;77.50;;;;;;5097312;28;20023;-70
2023/05/25 08:54:33;;;;;;;6.65;3.60;;;23.00;75.70;;;;;;5097606;28;20361;-70
2023/05/25 08:57:03;;;;;;;5.43;4.00;;;23.80;72.70;;;;;;5097923;28;20093;-71
2023/05/25 08:59:50;;;;;;;8.18;4.13;;;23.70;71.40;;;;;;5097586;28;20051;-71
2023/05/25 09:02:25;;;;;;;6.03;3.45;;;23.70;73.00;;;;;;5097602;28;20024;-70
2023/05/25 09:04:51;;;;;;;9.98;4.05;;;24.20;71.20;;;;;;5097735;28;20016;-71
2023/05/25 09:07:17;;;;;;;8.45;4.07;;;24.50;69.80;;;;;;5097687;28;20043;-70
2023/05/25 09:09:46;;;;;;;9.40;4.25;;;24.00;69.60;;;;;;5097231;28;20041;-70
2023/05/25 09:12:12;;;;;;;10.80;4.50;;;23.50;70.30;;;;;;5097262;28;20097;-71
2023/05/25 09:14:44;;;;;;;8.50;3.97;;;23.50;69.60;;;;;;5079086;28;20034;-71
2023/05/25 09:17:11;;;;;;;7.65;3.53;;;23.00;70.10;;;;;;5097564;28;20028;-70
2023/05/25 09:19:37;;;;;;;10.25;3.95;;;22.40;72.30;;;;;;5078951;28;20056;-70
2023/05/25 09:22:03;;;;;;;12.73;4.22;;;22.10;73.00;;;;;;5097048;28;20109;-70
2023/05/25 09:24:29;;;;;;;8.35;3.72;;;21.70;73.40;;;;;;5078827;28;20376;-70
2023/05/25 09:26:56;;;;;;;7.72;4.50;;;21.90;75.30;;;;;;5097004;28;20083;-70
2023/05/25 09:29:21;;;;;;;7.20;4.00;;;22.40;72.60;;;;;;5078499;28;20020;-70
2023/05/25 09:31:47;;;;;;;7.38;3.53;;;22.30;71.20;;;;;;5097244;28;20118;-71
2023/05/25 09:34:14;;;;;;;6.15;3.58;;;22.20;71.40;;;;;;5078748;28;20020;-71
2023/05/25 09:36:43;;;;;;;11.52;4.18;;;22.80;71.30;;;;;;5078476;28;20024;-71
2023/05/25 09:39:09;;;;;;;7.75;4.47;;;23.00;70.60;;;;;;5078520;28;20069;-72
2023/05/25 09:41:35;;;;;;;10.95;3.85;;;23.60;68.10;;;;;;5078400;28;20028;-71
2023/05/25 09:44:03;;;;;;;8.95;4.07;;;24.20;67.20;;;;;;5096095;28;20035;-72
2023/05/25 09:46:30;;;;;;;5.55;3.40;;;24.80;64.90;;;;;;5096609;28;20020;-72
2023/05/25 09:48:56;;;;;;;11.82;3.50;;;25.50;63.80;;;;;;5078452;28;20551;-72
2023/05/25 09:51:22;;;;;;;7.40;3.20;;;25.80;62.20;;;;;;5096181;28;20032;-72
2023/05/25 09:53:48;;;;;;;6.90;3.50;;;25.50;62.10;;;;;;5096738;28;20016;-72
2023/05/25 09:56:13;;;;;;;8.95;3.40;;;25.90;61.20;;;;;;5096309;28;20023;-72
2023/05/25 09:58:40;;;;;;;6.85;3.10;;;26.50;60.00;;;;;;5096160;28;20040;-72
2023/05/25 10:01:06;;;;;;;14.07;4.25;;;26.80;58.80;;;;;;5078640;28;20024;-72
2023/05/25 10:03:32;;;;;;;6.20;3.30;;;26.50;58.00;;;;;;5078176;28;20368;-72
2023/05/25 10:05:58;;;;;;;8.50;3.47;;;25.20;61.60;;;;;;5077840;28;20414;-72
2023/05/25 10:08:24;;;;;;;10.20;3.85;;;25.30;62.40;;;;;;5096253;28;20098;-72
2023/05/25 10:10:50;;;;;;;5.85;3.03;;;25.60;60.20;;;;;;5078392;28;20058;-72
2023/05/25 10:13:20;;;;;;;4.65;3.05;;;26.00;59.30;;;;;;5078027;28;20479;-72
2023/05/25 10:15:47;;;;;;;12.38;3.85;;;26.40;58.90;;;;;;5077896;28;20024;-72
2023/05/25 10:18:14;;;;;;;6.05;3.10;;;26.30;58.10;;;;;;5077985;28;20024;-72
2023/05/25 10:20:44;;;;;;;4.90;3.35;;;26.80;58.10;;;;;;5077821;28;20031;-72
2023/05/25 10:23:13;;;;;;;5.22;3.00;;;26.80;57.30;;;;;;5077840;28;20032;-73
2023/05/25 10:25:47;;;;;;;4.35;2.80;;;26.80;57.60;;;;;;5095155;28;20028;-72
2023/05/25 10:28:17;;;;;;;5.85;3.20;;;26.90;56.60;;;;;;5095899;28;20020;-73
2023/05/25 10:30:44;;;;;;;7.72;3.30;;;26.40;56.40;;;;;;5077461;28;20020;-73
2023/05/25 10:33:10;;;;;;;7.03;3.55;;;26.60;57.10;;;;;;5095932;28;20034;-71
2023/05/25 10:35:41;;;;;;;5.63;3.35;;;27.10;55.10;;;;;;5077480;28;20016;-72
2023/05/25 10:38:08;;;;;;;9.18;3.35;;;26.90;55.40;;;;;;5095827;28;20027;-72
2023/05/25 10:40:36;;;;;;;7.90;3.75;;;26.90;55.80;;;;;;5095165;28;20028;-72
2023/05/25 10:43:03;;;;;;;7.87;3.30;;;26.90;56.10;;;;;;5095654;28;20027;-72
2023/05/25 10:45:29;;;;;;;6.15;3.00;;;27.10;57.40;;;;;;5077240;28;20028;-72
2023/05/25 10:47:55;;;;;;;8.13;3.10;;;26.60;56.30;;;;;;5095764;28;20020;-72
2023/05/25 10:50:25;;;;;;;6.07;3.67;;;26.60;56.00;;;;;;5094041;28;20027;-72
2023/05/25 10:53:07;;;;;;;5.15;3.10;;;26.30;56.30;;;;;;5077068;28;20046;-72
2023/05/25 10:55:47;;;;;;;5.78;3.03;;;26.90;55.10;;;;;;5076417;28;20069;-72
2023/05/25 10:58:15;;;;;;;7.13;3.20;;;26.80;55.00;;;;;;5077015;28;20413;-72
2023/05/25 11:00:41;;;;;;;5.63;2.88;;;26.30;55.80;;;;;;5094106;28;20145;-72
2023/05/25 11:03:07;;;;;;;8.98;2.92;;;26.30;57.90;;;;;;5095166;28;20057;-72
2023/05/25 11:05:37;;;;;;;7.25;3.40;;;26.90;56.30;;;;;;5095341;28;20016;-72
2023/05/25 11:08:07;;;;;;;6.00;2.85;;;26.90;55.80;;;;;;5095028;28;20061;-71
2023/05/25 11:10:49;;;;;;;10.07;2.70;;;26.20;56.70;;;;;;5077236;28;20020;-71
2023/05/25 11:13:30;;;;;;;5.97;3.20;;;26.20;57.60;;;;;;5095037;28;20104;-72
2023/05/25 11:16:19;;;;;;;6.22;2.92;;;27.10;56.20;;;;;;5094676;28;20082;-71
2023/05/25 11:18:56;;;;;;;6.55;3.05;;;27.40;54.90;;;;;;5094622;28;20418;-72
2023/05/25 11:21:23;;;;;;;6.75;2.97;;;28.10;53.90;;;;;;5076687;28;20027;-75
2023/05/25 11:24:01;;;;;;;8.55;3.38;;;27.70;54.10;;;;;;5094807;28;20028;-72
2023/05/25 11:26:31;;;;;;;6.65;2.80;;;27.90;53.30;;;;;;5076784;28;20051;-72
2023/05/25 11:28:59;;;;;;;4.68;2.83;;;27.00;53.60;;;;;;5095055;28;20361;-72
2023/05/25 11:31:31;;;;;;;8.52;3.03;;;26.60;56.80;;;;;;5094754;28;20027;-72
2023/05/25 11:34:03;;;;;;;7.63;3.30;;;27.10;56.20;;;;;;5094271;28;20020;-72
2023/05/25 11:36:33;;;;;;;7.38;2.80;;;27.90;55.20;;;;;;5094648;28;20016;-72
2023/05/25 11:39:08;;;;;;;7.65;2.75;;;28.40;53.40;;;;;;5076691;28;20028;-72
2023/05/25 11:41:35;;;;;;;5.10;3.10;;;28.00;53.60;;;;;;5076236;28;20031;-72
2023/05/25 11:44:05;;;;;;;6.05;2.70;;;28.40;53.40;;;;;;5094562;28;20028;-72
2023/05/25 11:46:32;;;;;;;7.10;3.00;;;28.50;53.70;;;;;;5094596;28;20032;-72
2023/05/25 11:48:58;;;;;;;5.18;2.60;;;29.00;53.00;;;;;;5076023;28;20082;-72
2023/05/25 11:51:26;;;;;;;4.07;2.70;;;28.80;52.10;;;;;;5075889;28;20055;-72
2023/05/25 11:53:53;;;;;;;4.45;2.55;;;29.40;50.60;;;;;;5076008;28;20040;-72
2023/05/25 11:56:21;;;;;;;9.52;3.25;;;29.20;50.60;;;;;;5093948;28;20077;-72
2023/05/25 11:58:48;;;;;;;4.10;2.60;;;29.40;50.20;;;;;;5084855;28;20048;-72
2023/05/25 12:01:22;;;;;;;2.83;2.53;;;29.70;49.90;;;;;;5082940;28;20340;-73
2023/05/25 12:03:56;;;;;;;5.80;2.80;;;29.50;48.30;;;;;;5083910;28;20024;-72
2023/05/25 12:06:30;;;;;;;4.32;3.15;;;29.70;49.70;;;;;;5065639;28;20031;-72
2023/05/25 12:08:56;;;;;;;5.00;2.55;;;29.60;48.00;;;;;;5084324;28;20032;-72
2023/05/25 12:11:31;;;;;;;5.95;2.72;;;29.30;50.30;;;;;;5089149;28;20496;-73
2023/05/25 12:13:57;;;;;;;4.05;2.15;;;29.40;50.80;;;;;;5083986;28;20196;-72
2023/05/25 12:16:23;;;;;;;5.68;3.00;;;29.30;50.50;;;;;;5084172;28;20020;-72
2023/05/25 12:18:50;;;;;;;5.45;3.03;;;29.40;48.60;;;;;;5075219;28;20039;-71
2023/05/25 12:21:16;;;;;;;6.85;2.95;;;29.10;49.10;;;;;;5075797;28;20032;-72
2023/05/25 12:23:42;;;;;;;5.32;2.67;;;28.90;49.60;;;;;;5076429;28;20034;-71
2023/05/25 12:26:10;;;;;;;8.15;3.30;;;28.50;49.60;;;;;;5075790;28;20111;-72
2023/05/25 12:28:36;;;;;;;8.13;2.95;;;28.60;50.70;;;;;;5076059;28;20024;-72
2023/05/25 12:31:25;;;;;;;5.97;3.00;;;28.90;50.30;;;;;;5093852;28;20119;-72
2023/05/25 12:34:17;;;;;;;8.02;3.22;;;29.50;50.40;;;;;;5076074;28;20051;-71
2023/05/25 12:36:51;;;;;;;5.07;2.60;;;29.30;48.90;;;;;;5093652;28;20429;-72
2023/05/25 12:39:30;;;;;;;7.50;3.17;;;29.50;48.70;;;;;;5093336;28;20097;-71
2023/05/25 12:41:55;;;;;;;;;;;29.40;48.40;;;;;;5094015;28;20036;-72